createdAt,value
2024-01-30T00:02:27.965Z,102814.97
2024-01-30T00:05:30.169Z,102821.28
2024-01-30T00:08:32.457Z,102822.03
2024-01-30T00:11:34.751Z,102821.81
2024-01-30T00:14:37.020Z,102817.69
2024-01-30T00:17:39.322Z,102816.84
2024-01-30T00:20:42.111Z,102818.53
2024-01-30T00:23:44.419Z,102821.03
2024-01-30T00:26:46.593Z,102820.84
2024-01-30T00:29:49.064Z,102821.91
2024-01-30T00:32:51.333Z,102821.94
2024-01-30T00:35:53.596Z,102823.78
2024-01-30T00:38:55.742Z,102832.38
2024-01-30T00:41:58.012Z,102831.50
2024-01-30T00:45:00.267Z,102835.78
2024-01-30T00:48:02.566Z,102842.63
2024-01-30T00:51:04.898Z,102836.44
2024-01-30T00:54:07.680Z,102831.50
2024-01-30T00:57:10.302Z,102830.50
2024-01-30T01:00:13.727Z,102827.22
2024-01-30T01:03:16.105Z,102828.47
2024-01-30T01:06:18.486Z,102824.94
2024-01-30T01:09:20.761Z,102821.34
2024-01-30T01:12:22.949Z,102826.31
2024-01-30T01:15:27.083Z,102822.63
2024-01-30T01:18:30.035Z,102817.53
2024-01-30T01:21:32.238Z,102818.63
2024-01-30T01:24:35.232Z,102813.59
2024-01-30T01:27:41.914Z,102814.78
2024-01-30T01:30:44.488Z,102815.69
2024-01-30T01:33:46.931Z,102817.38
2024-01-30T01:36:49.367Z,102811.03
2024-01-30T01:39:51.624Z,102805.78
2024-01-30T01:42:55.022Z,102801.47
2024-01-30T01:45:57.465Z,102805.69
2024-01-30T01:48:59.863Z,102808.47
2024-01-30T01:52:02.222Z,102796.28
2024-01-30T01:55:04.730Z,102801.41
2024-01-30T01:58:07.097Z,102804.75
2024-01-30T02:01:09.452Z,102809.09
2024-01-30T02:04:11.744Z,102803.66
2024-01-30T02:07:14.380Z,102806.84
2024-01-30T02:10:16.912Z,102806.06
2024-01-30T02:13:19.365Z,102799.72
2024-01-30T02:16:21.884Z,102801.06
2024-01-30T02:19:24.123Z,102800.16
2024-01-30T02:22:26.562Z,102804.44
2024-01-30T02:25:36.905Z,102796.81
2024-01-30T02:28:39.561Z,102798.00
2024-01-30T02:31:42.301Z,102798.00
2024-01-30T02:34:44.574Z,102794.53
2024-01-30T02:37:46.868Z,102797.97
2024-01-30T02:40:48.993Z,102803.19
2024-01-30T02:43:51.240Z,102801.34
2024-01-30T02:46:55.379Z,102805.78
2024-01-30T02:49:57.803Z,102799.72
2024-01-30T02:53:00.100Z,102797.13
2024-01-30T02:56:03.771Z,102802.97
2024-01-30T02:59:05.986Z,102801.94
2024-01-30T03:02:08.235Z,102799.22
2024-01-30T03:05:10.386Z,102795.00
2024-01-30T03:08:12.630Z,102797.69
2024-01-30T03:11:14.924Z,102790.84
2024-01-30T03:14:17.575Z,102791.66
2024-01-30T03:17:19.963Z,102799.66
2024-01-30T03:20:22.216Z,102802.25
2024-01-30T03:23:24.406Z,102799.59
2024-01-30T03:26:26.574Z,102796.00
2024-01-30T03:29:28.783Z,102799.38
2024-01-30T03:32:30.973Z,102799.50
2024-01-30T03:35:33.130Z,102803.59
2024-01-30T03:38:35.700Z,102805.31
2024-01-30T03:41:37.936Z,102798.09
2024-01-30T03:44:40.110Z,102789.47
2024-01-30T03:47:44.928Z,102789.81
2024-01-30T03:50:47.126Z,102778.81
2024-01-30T03:53:49.277Z,102784.22
2024-01-30T03:56:51.557Z,102790.34
2024-01-30T03:59:54.444Z,102783.66
2024-01-30T04:02:56.899Z,102774.25
2024-01-30T04:05:59.504Z,102785.56
2024-01-30T04:09:01.782Z,102783.13
2024-01-30T04:12:04.867Z,102777.63
2024-01-30T04:15:07.204Z,102779.31
2024-01-30T04:18:09.439Z,102779.84
2024-01-30T04:21:11.679Z,102777.94
2024-01-30T04:24:13.951Z,102776.22
2024-01-30T04:27:16.157Z,102780.31
2024-01-30T04:30:18.453Z,102776.56
2024-01-30T04:33:20.591Z,102775.94
2024-01-30T04:36:22.818Z,102776.16
2024-01-30T04:39:24.961Z,102781.53
2024-01-30T04:42:27.250Z,102781.53
2024-01-30T04:45:29.445Z,102783.28
2024-01-30T04:48:31.703Z,102784.06
2024-01-30T04:51:34.117Z,102788.34
2024-01-30T04:54:36.812Z,102785.97
2024-01-30T04:57:39.277Z,102789.53
2024-01-30T05:00:41.648Z,102778.22
2024-01-30T05:03:44.397Z,102792.84
2024-01-30T05:06:46.852Z,102792.78
2024-01-30T05:09:49.075Z,102791.13
2024-01-30T05:12:51.406Z,102799.75
2024-01-30T05:15:53.637Z,102791.94
2024-01-30T05:18:55.883Z,102803.97
2024-01-30T05:21:58.074Z,102808.13
2024-01-30T05:25:00.340Z,102819.22
2024-01-30T05:28:02.552Z,102816.38
2024-01-30T05:31:04.927Z,102816.56
2024-01-30T05:34:08.000Z,102816.66
2024-01-30T05:37:10.407Z,102820.22
2024-01-30T05:40:12.776Z,102823.81
2024-01-30T05:43:15.139Z,102824.75
2024-01-30T05:46:17.463Z,102826.25
2024-01-30T05:49:19.779Z,102818.31
2024-01-30T05:52:22.174Z,102817.63
2024-01-30T05:55:24.489Z,102822.59
2024-01-30T05:58:26.686Z,102827.34
2024-01-30T06:01:30.566Z,102832.34
2024-01-30T06:04:33.051Z,102823.91
2024-01-30T06:07:37.065Z,102819.66
2024-01-30T06:10:40.262Z,102827.19
2024-01-30T06:13:42.481Z,102830.94
2024-01-30T06:16:44.633Z,102825.00
2024-01-30T06:19:46.859Z,102829.63
2024-01-30T06:22:49.037Z,102827.94
2024-01-30T06:25:51.239Z,102825.41
2024-01-30T06:28:53.489Z,102835.78
2024-01-30T06:31:55.844Z,102836.84
2024-01-30T06:34:58.160Z,102833.66
2024-01-30T06:38:00.496Z,102839.28
2024-01-30T06:41:02.744Z,102838.78
2024-01-30T06:44:09.424Z,102836.34
2024-01-30T06:47:12.035Z,102829.16
2024-01-30T06:50:14.358Z,102823.59
2024-01-30T06:53:16.610Z,102832.13
2024-01-30T06:56:22.057Z,102834.59
2024-01-30T06:59:24.897Z,102824.66
2024-01-30T07:02:27.121Z,102828.38
2024-01-30T07:05:29.266Z,102828.66
2024-01-30T07:08:31.476Z,102832.53
2024-01-30T07:11:33.748Z,102827.59
2024-01-30T07:14:36.508Z,102836.47
2024-01-30T07:17:38.909Z,102831.38
2024-01-30T07:20:47.384Z,102828.00
2024-01-30T07:23:49.759Z,102831.28
2024-01-30T07:26:52.042Z,102835.00
2024-01-30T07:29:54.915Z,102833.06
2024-01-30T07:32:57.222Z,102828.94
2024-01-30T07:35:59.403Z,102827.38
2024-01-30T07:39:01.709Z,102816.88
2024-01-30T07:42:07.224Z,102809.78
2024-01-30T07:45:10.655Z,102809.66
2024-01-30T07:48:12.945Z,102812.16
2024-01-30T07:51:15.254Z,102805.97
2024-01-30T07:54:17.538Z,102798.63
2024-01-30T07:57:19.668Z,102794.75
2024-01-30T08:00:22.731Z,102804.13
2024-01-30T08:03:25.446Z,102799.91
2024-01-30T08:06:27.722Z,102804.38
2024-01-30T08:09:29.909Z,102794.44
2024-01-30T08:12:32.102Z,102804.59
2024-01-30T08:15:34.684Z,102799.13
2024-01-30T08:18:37.316Z,102791.19
2024-01-30T08:21:40.231Z,102805.81
2024-01-30T08:24:42.617Z,102806.53
2024-01-30T08:27:45.652Z,102813.72
2024-01-30T08:30:49.018Z,102809.00
2024-01-30T08:33:51.392Z,102823.06
2024-01-30T08:36:53.656Z,102826.75
2024-01-30T08:39:56.129Z,102830.66
2024-01-30T08:42:58.358Z,102836.03
2024-01-30T08:46:01.992Z,102827.34
2024-01-30T08:49:06.040Z,102825.19
2024-01-30T08:52:08.432Z,102828.75
2024-01-30T08:55:10.797Z,102833.75
2024-01-30T08:58:13.241Z,102823.44
2024-01-30T09:01:15.977Z,102824.25
2024-01-30T09:04:18.219Z,102820.59
2024-01-30T09:07:20.615Z,102815.22
2024-01-30T09:10:23.232Z,102801.63
2024-01-30T09:13:25.685Z,102796.25
2024-01-30T09:16:28.060Z,102796.84
2024-01-30T09:19:31.678Z,102789.31
2024-01-30T09:22:34.211Z,102795.09
2024-01-30T09:25:36.605Z,102796.28
2024-01-30T09:28:38.809Z,102794.16
2024-01-30T09:31:44.725Z,102794.09
2024-01-30T09:34:47.196Z,102796.41
2024-01-30T09:37:49.488Z,102788.91
2024-01-30T09:40:56.007Z,102790.34
2024-01-30T09:43:58.705Z,102787.75
2024-01-30T09:47:04.677Z,102786.28
2024-01-30T09:50:07.887Z,102788.25
2024-01-30T09:53:10.448Z,102792.38
2024-01-30T09:56:13.766Z,102793.06
2024-01-30T09:59:16.451Z,102795.66
2024-01-30T10:02:20.228Z,102803.53
2024-01-30T10:05:27.958Z,102810.56
2024-01-30T10:08:31.085Z,102811.38
2024-01-30T10:11:33.435Z,102799.06
2024-01-30T10:14:39.224Z,102810.03
2024-01-30T10:17:41.828Z,102813.69
2024-01-30T10:20:44.113Z,102806.19
2024-01-30T10:23:46.316Z,102801.41
2024-01-30T10:26:48.547Z,102793.94
2024-01-30T10:29:50.733Z,102789.63
2024-01-30T10:32:53.125Z,102792.34
2024-01-30T10:36:03.405Z,102798.66
2024-01-30T10:39:07.678Z,102791.97
2024-01-30T10:42:14.688Z,102787.34
2024-01-30T10:45:17.103Z,102788.63
2024-01-30T10:48:23.381Z,102788.72
2024-01-30T10:51:27.979Z,102774.78
2024-01-30T10:54:30.182Z,102768.59
2024-01-30T10:57:37.870Z,102765.81
2024-01-30T11:00:40.444Z,102758.13
2024-01-30T11:03:42.977Z,102758.66
2024-01-30T11:06:45.615Z,102751.75
2024-01-30T11:09:54.944Z,102747.44
2024-01-30T11:12:57.279Z,102754.59
2024-01-30T11:16:06.474Z,102749.38
2024-01-30T11:19:12.224Z,102748.59
2024-01-30T11:22:14.717Z,102747.06
2024-01-30T11:25:18.456Z,102736.50
2024-01-30T11:28:23.164Z,102740.03
2024-01-30T11:31:25.521Z,102729.59
2024-01-30T11:34:30.680Z,102733.94
2024-01-30T11:37:33.070Z,102735.72
2024-01-30T11:40:37.598Z,102730.50
2024-01-30T11:43:40.067Z,102728.91
2024-01-30T11:46:42.616Z,102720.13
2024-01-30T11:49:45.233Z,102721.16
2024-01-30T11:52:47.857Z,102715.09
2024-01-30T11:55:53.862Z,102715.91
2024-01-30T11:58:56.300Z,102717.59
2024-01-30T12:01:58.568Z,102705.38
2024-01-30T12:05:06.142Z,102699.19
2024-01-30T12:08:08.545Z,102694.88
2024-01-30T12:11:11.540Z,102690.56
2024-01-30T12:14:14.299Z,102687.13
2024-01-30T12:17:30.181Z,102688.88
2024-01-30T12:20:32.350Z,102680.94
2024-01-30T12:23:34.552Z,102680.19
2024-01-30T12:26:36.854Z,102674.06
2024-01-30T12:29:43.249Z,102672.31
2024-01-30T12:32:47.446Z,102674.94
2024-01-30T12:35:58.377Z,102674.88
2024-01-30T12:39:05.574Z,102667.81
2024-01-30T12:42:08.589Z,102667.72
2024-01-30T12:45:11.292Z,102665.09
2024-01-30T12:48:13.845Z,102659.88
2024-01-30T12:51:16.094Z,102661.69
2024-01-30T12:54:18.769Z,102652.88
2024-01-30T12:57:21.216Z,102654.66
2024-01-30T13:00:23.745Z,102652.03
2024-01-30T13:03:26.019Z,102645.03
2024-01-30T13:06:28.278Z,102635.41
2024-01-30T13:09:33.832Z,102642.41
2024-01-30T13:12:36.623Z,102631.09
2024-01-30T13:15:39.478Z,102633.78
2024-01-30T13:18:42.451Z,102630.22
2024-01-30T13:21:44.864Z,102624.97
2024-01-30T13:24:47.061Z,102624.94
2024-01-30T13:27:49.439Z,102630.22
2024-01-30T13:30:51.693Z,102630.19
2024-01-30T13:33:54.808Z,102629.28
2024-01-30T13:36:57.727Z,102628.38
2024-01-30T13:40:01.317Z,102631.84
2024-01-30T13:43:04.840Z,102629.25
2024-01-30T13:46:07.196Z,102624.84
2024-01-30T13:49:09.494Z,102625.75
2024-01-30T13:52:11.715Z,102626.59
2024-01-30T13:55:14.402Z,102618.75
2024-01-30T13:58:16.852Z,102618.75
2024-01-30T14:01:19.393Z,102619.69
2024-01-30T14:04:23.050Z,102614.34
2024-01-30T14:07:25.528Z,102614.34
2024-01-30T14:10:27.895Z,102615.25
2024-01-30T14:13:30.357Z,102617.78
2024-01-30T14:16:32.628Z,102611.72
2024-01-30T14:19:36.473Z,102616.03
2024-01-30T14:22:41.742Z,102613.44
2024-01-30T14:25:44.044Z,102616.09
2024-01-30T14:28:47.406Z,102613.31
2024-01-30T14:31:49.480Z,102602.78
2024-01-30T14:34:52.195Z,102614.25
2024-01-30T14:37:54.616Z,102604.63
2024-01-30T14:40:56.814Z,102606.34
2024-01-30T14:43:59.027Z,102601.97
2024-01-30T14:47:01.768Z,102603.72
2024-01-30T14:50:06.620Z,102606.34
2024-01-30T14:53:09.672Z,102599.28
2024-01-30T14:56:11.950Z,102601.91
2024-01-30T14:59:14.475Z,102599.28
2024-01-30T15:02:16.855Z,102595.72
2024-01-30T15:05:19.180Z,102606.25
2024-01-30T15:08:21.865Z,102594.91
2024-01-30T15:11:24.179Z,102602.78
2024-01-30T15:14:26.426Z,102601.91
2024-01-30T15:17:28.669Z,102601.03
2024-01-30T15:20:32.526Z,102595.75
2024-01-30T15:23:34.774Z,102602.84
2024-01-30T15:26:37.003Z,102602.88
2024-01-30T15:29:39.392Z,102595.94
2024-01-30T15:32:41.861Z,102596.78
2024-01-30T15:35:44.146Z,102603.00
2024-01-30T15:38:46.591Z,102603.91
2024-01-30T15:41:49.422Z,102604.78
2024-01-30T15:44:51.657Z,102597.81
2024-01-30T15:47:53.845Z,102597.81
2024-01-30T15:50:55.993Z,102596.06
2024-01-30T15:53:58.237Z,102602.25
2024-01-30T15:57:00.628Z,102598.78
2024-01-30T16:00:02.968Z,102604.00
2024-01-30T16:03:13.721Z,102602.28
2024-01-30T16:06:18.173Z,102610.19
2024-01-30T16:09:20.443Z,102608.41
2024-01-30T16:12:22.609Z,102603.16
2024-01-30T16:15:26.405Z,102599.69
2024-01-30T16:18:32.063Z,102598.84
2024-01-30T16:21:34.282Z,102606.72
2024-01-30T16:24:36.510Z,102612.84
2024-01-30T16:27:38.731Z,102602.41
2024-01-30T16:30:40.846Z,102612.09
2024-01-30T16:33:43.075Z,102601.59
2024-01-30T16:36:45.316Z,102593.72
2024-01-30T16:39:47.679Z,102598.09
2024-01-30T16:42:49.904Z,102601.59
2024-01-30T16:45:52.245Z,102590.22
2024-01-30T16:48:54.520Z,102600.75
2024-01-30T16:51:58.619Z,102604.25
2024-01-30T16:55:02.148Z,102601.66
2024-01-30T16:58:04.757Z,102603.44
2024-01-30T17:01:07.052Z,102597.31
2024-01-30T17:04:09.455Z,102607.84
2024-01-30T17:07:11.891Z,102609.59
2024-01-30T17:10:17.584Z,102603.44
2024-01-30T17:13:19.834Z,102601.72
2024-01-30T17:16:22.553Z,102604.34
2024-01-30T17:19:24.995Z,102599.09
2024-01-30T17:22:28.108Z,102604.38
2024-01-30T17:25:30.608Z,102594.78
2024-01-30T17:28:32.954Z,102597.44
2024-01-30T17:31:35.237Z,102607.06
2024-01-30T17:34:37.506Z,102603.56
2024-01-30T17:37:40.325Z,102597.41
2024-01-30T17:40:42.586Z,102590.47
2024-01-30T17:43:45.120Z,102593.97
2024-01-30T17:46:48.462Z,102593.97
2024-01-30T17:49:50.769Z,102594.00
2024-01-30T17:52:54.944Z,102594.00
2024-01-30T17:56:01.673Z,102592.22
2024-01-30T17:59:04.118Z,102593.09
2024-01-30T18:02:06.596Z,102598.34
2024-01-30T18:05:10.813Z,102592.22
2024-01-30T18:08:13.154Z,102593.97
2024-01-30T18:11:15.372Z,102590.50
2024-01-30T18:14:17.586Z,102599.25
2024-01-30T18:17:19.752Z,102594.84
2024-01-30T18:20:22.003Z,102597.47
2024-01-30T18:23:24.325Z,102592.22
2024-01-30T18:26:27.280Z,102588.72
2024-01-30T18:29:29.596Z,102586.97
2024-01-30T18:32:31.847Z,102587.84
2024-01-30T18:35:34.871Z,102590.47
2024-01-30T18:38:37.089Z,102588.72
2024-01-30T18:41:39.401Z,102588.69
2024-01-30T18:44:41.660Z,102591.31
2024-01-30T18:47:43.900Z,102592.16
2024-01-30T18:50:46.271Z,102588.69
2024-01-30T18:53:48.927Z,102591.31
2024-01-30T18:56:51.184Z,102587.78
2024-01-30T18:59:53.517Z,102586.03
2024-01-30T19:02:56.712Z,102583.44
2024-01-30T19:05:59.174Z,102585.09
2024-01-30T19:09:01.482Z,102590.38
2024-01-30T19:12:03.796Z,102585.16
2024-01-30T19:15:10.490Z,102586.03
2024-01-30T19:18:13.994Z,102581.69
2024-01-30T19:21:16.313Z,102594.78
2024-01-30T19:24:18.513Z,102592.16
2024-01-30T19:27:21.121Z,102586.06
2024-01-30T19:30:23.416Z,102583.44
2024-01-30T19:33:25.631Z,102581.72
2024-01-30T19:36:27.810Z,102583.44
2024-01-30T19:39:29.948Z,102578.19
2024-01-30T19:42:32.235Z,102583.41
2024-01-30T19:45:35.105Z,102578.16
2024-01-30T19:48:37.813Z,102584.25
2024-01-30T19:51:40.003Z,102582.50
2024-01-30T19:54:42.194Z,102582.50
2024-01-30T19:57:44.458Z,102573.78
2024-01-30T20:00:47.789Z,102579.94
2024-01-30T20:03:50.129Z,102577.31
2024-01-30T20:06:52.400Z,102578.16
2024-01-30T20:09:54.752Z,102582.53
2024-01-30T20:12:58.087Z,102571.19
2024-01-30T20:16:00.494Z,102581.63
2024-01-30T20:19:02.832Z,102579.88
2024-01-30T20:22:05.232Z,102581.56
2024-01-30T20:25:13.731Z,102578.09
2024-01-30T20:28:20.833Z,102578.97
2024-01-30T20:31:23.233Z,102595.47
2024-01-30T20:34:25.708Z,102586.72
2024-01-30T20:37:28.451Z,102598.75
2024-01-30T20:40:30.733Z,102596.09
2024-01-30T20:43:33.050Z,102604.81
2024-01-30T20:46:35.386Z,102586.53
2024-01-30T20:49:37.835Z,102582.97
2024-01-30T20:52:40.186Z,102582.13
2024-01-30T20:55:42.604Z,102580.34
2024-01-30T20:58:44.818Z,102577.72
2024-01-30T21:01:47.164Z,102575.97
2024-01-30T21:04:49.612Z,102577.66
2024-01-30T21:07:53.929Z,102586.34
2024-01-30T21:10:56.307Z,102578.53
2024-01-30T21:13:58.662Z,102575.88
2024-01-30T21:17:01.872Z,102575.81
2024-01-30T21:20:04.877Z,102572.28
